createdAt,value
2019-03-21T00:00:43.372Z,65.12
2019-03-21T00:03:14.126Z,65.71
2019-03-21T00:05:44.911Z,65.92
2019-03-21T00:08:15.035Z,64.64
2019-03-21T00:11:33.850Z,65.43
2019-03-21T00:14:12.194Z,65.44
2019-03-21T00:16:43.005Z,65.74
2019-03-21T00:19:13.715Z,65.17
2019-03-21T00:21:44.475Z,64.68
2019-03-21T00:24:15.217Z,66.14
2019-03-21T00:26:46.006Z,65.16
2019-03-21T00:29:17.396Z,65.80
2019-03-21T00:31:48.234Z,66.33
2019-03-21T00:34:19.215Z,65.38
2019-03-21T00:36:49.910Z,65.45
2019-03-21T00:39:20.752Z,66.06
2019-03-21T00:41:51.448Z,64.64
2019-03-21T00:44:22.278Z,65.13
2019-03-21T00:46:53.329Z,65.14
2019-03-21T00:49:26.957Z,65.57
2019-03-21T00:51:57.815Z,65.51
2019-03-21T00:54:28.787Z,65.41
2019-03-21T00:56:59.601Z,65.17
2019-03-21T00:59:30.335Z,64.56
2019-03-21T01:02:01.087Z,64.84
2019-03-21T01:04:34.639Z,64.47
2019-03-21T01:07:06.400Z,64.69
2019-03-21T01:09:37.645Z,64.39
2019-03-21T01:12:09.738Z,65.54
2019-03-21T01:14:40.756Z,65.59
2019-03-21T01:17:11.587Z,65.57
2019-03-21T01:19:42.398Z,66.32
2019-03-21T01:22:13.181Z,67.77
2019-03-21T01:24:43.894Z,67.39
2019-03-21T01:27:14.600Z,66.81
2019-03-21T01:29:45.464Z,67.27
2019-03-21T01:32:16.216Z,67.25
2019-03-21T01:34:46.917Z,67.44
2019-03-21T01:37:17.664Z,66.92
2019-03-21T01:39:48.511Z,68.57
2019-03-21T01:42:19.272Z,66.53
2019-03-21T01:44:49.989Z,66.57
2019-03-21T01:47:20.700Z,66.31
2019-03-21T01:49:52.193Z,67.30
2019-03-21T01:52:23.696Z,66.51
2019-03-21T01:54:55.194Z,66.13
2019-03-21T01:57:27.036Z,65.48
2019-03-21T01:59:58.177Z,65.68
2019-03-21T02:02:28.903Z,64.99
2019-03-21T02:04:59.827Z,66.00
2019-03-21T02:07:30.528Z,64.89
2019-03-21T02:10:01.673Z,64.74
2019-03-21T02:12:32.640Z,64.67
2019-03-21T02:15:03.405Z,64.99
2019-03-21T02:17:34.554Z,64.63
2019-03-21T02:20:05.684Z,64.52
2019-03-21T02:22:36.451Z,64.88
2019-03-21T02:25:11.456Z,65.71
2019-03-21T02:27:42.172Z,65.56
2019-03-21T02:30:17.167Z,64.96
2019-03-21T02:32:48.752Z,64.84
2019-03-21T02:35:19.465Z,64.80
2019-03-21T02:37:50.186Z,64.69
2019-03-21T02:40:22.445Z,65.55
2019-03-21T02:42:53.401Z,64.55
2019-03-21T02:45:24.346Z,65.99
2019-03-21T02:47:55.054Z,65.49
2019-03-21T02:50:29.858Z,64.67
2019-03-21T02:53:00.756Z,65.19
2019-03-21T02:55:31.481Z,65.73
2019-03-21T02:58:02.543Z,65.99
2019-03-21T03:00:34.131Z,65.60
2019-03-21T03:03:04.993Z,67.32
2019-03-21T03:05:36.208Z,65.47
2019-03-21T03:08:07.260Z,67.20
2019-03-21T03:10:47.953Z,65.62
2019-03-21T03:13:18.644Z,65.05
2019-03-21T03:15:49.480Z,65.04
2019-03-21T03:18:20.474Z,64.78
2019-03-21T03:20:51.348Z,66.67
2019-03-21T03:23:22.152Z,65.30
2019-03-21T03:25:52.854Z,65.87
2019-03-21T03:28:25.705Z,64.93
2019-03-21T03:30:57.850Z,64.98
2019-03-21T03:33:28.600Z,65.24
2019-03-21T03:35:59.519Z,64.83
2019-03-21T03:38:30.668Z,64.84
2019-03-21T03:41:02.584Z,64.60
2019-03-21T03:43:33.737Z,64.61
2019-03-21T03:46:05.423Z,64.62
2019-03-21T03:48:36.129Z,65.21
2019-03-21T03:51:06.895Z,64.52
2019-03-21T03:53:37.605Z,64.57
2019-03-21T03:56:09.300Z,64.35
2019-03-21T03:58:42.312Z,64.46
2019-03-21T04:01:13.815Z,64.42
2019-03-21T04:03:45.294Z,64.41
2019-03-21T04:06:16.066Z,66.32
2019-03-21T04:08:46.872Z,65.04
2019-03-21T04:11:18.407Z,64.06
2019-03-21T04:13:49.823Z,64.20
2019-03-21T04:16:20.984Z,64.20
2019-03-21T04:18:52.196Z,66.60
2019-03-21T04:21:23.403Z,64.81
2019-03-21T04:23:54.139Z,65.32
2019-03-21T04:26:28.708Z,63.77
2019-03-21T04:29:00.046Z,64.61
2019-03-21T04:31:30.837Z,63.56
2019-03-21T04:34:03.562Z,63.67
2019-03-21T04:36:34.271Z,64.11
2019-03-21T04:39:07.400Z,63.93
2019-03-21T04:41:39.005Z,63.75
2019-03-21T04:44:09.719Z,63.77
2019-03-21T04:46:40.500Z,63.61
2019-03-21T04:49:11.614Z,64.82
2019-03-21T04:51:42.586Z,64.14
2019-03-21T04:54:13.584Z,64.19
2019-03-21T04:56:44.358Z,63.62
2019-03-21T04:59:15.323Z,63.39
2019-03-21T05:01:46.076Z,63.99
2019-03-21T05:04:16.792Z,64.03
2019-03-21T05:06:48.013Z,64.49
2019-03-21T05:09:20.743Z,63.93
2019-03-21T05:11:51.548Z,64.13
2019-03-21T05:14:22.562Z,64.06
2019-03-21T05:16:53.346Z,64.21
2019-03-21T05:19:24.070Z,64.45
2019-03-21T05:21:54.927Z,64.22
2019-03-21T05:24:26.190Z,63.93
2019-03-21T05:26:56.910Z,64.57
2019-03-21T05:29:27.890Z,64.34
2019-03-21T05:31:58.625Z,64.14
2019-03-21T05:34:29.570Z,64.49
2019-03-21T05:37:00.843Z,64.29
2019-03-21T05:39:31.577Z,64.41
2019-03-21T05:42:04.389Z,64.09
2019-03-21T05:44:41.543Z,63.94
2019-03-21T05:47:12.254Z,64.39
2019-03-21T05:49:43.072Z,63.97
2019-03-21T05:52:14.762Z,64.50
2019-03-21T05:54:45.569Z,63.92
2019-03-21T05:57:16.240Z,64.60
2019-03-21T05:59:46.953Z,63.92
2019-03-21T06:02:17.759Z,63.86
2019-03-21T06:04:48.493Z,63.80
2019-03-21T06:07:37.968Z,63.59
2019-03-21T06:10:11.978Z,63.57
2019-03-21T06:12:46.106Z,64.15
2019-03-21T06:15:24.265Z,63.48
2019-03-21T06:18:44.272Z,63.31
2019-03-21T06:21:47.693Z,63.44
2019-03-21T06:24:58.212Z,63.39
2019-03-21T06:27:32.024Z,63.99
2019-03-21T06:30:03.416Z,63.78
2019-03-21T06:32:36.924Z,63.06
2019-03-21T06:35:21.385Z,62.91
2019-03-21T06:37:53.139Z,63.28
2019-03-21T06:40:23.934Z,63.55
2019-03-21T06:42:54.854Z,63.69
2019-03-21T06:45:25.684Z,62.77
2019-03-21T06:47:56.575Z,62.89
2019-03-21T06:50:27.893Z,63.13
2019-03-21T06:52:58.623Z,62.73
2019-03-21T06:55:29.361Z,62.59
2019-03-21T06:58:00.066Z,62.90
2019-03-21T07:00:30.844Z,62.71
2019-03-21T07:03:04.607Z,63.53
2019-03-21T07:05:35.318Z,62.69
2019-03-21T07:08:06.130Z,62.72
2019-03-21T07:10:37.510Z,62.66
2019-03-21T07:13:08.457Z,62.83
2019-03-21T07:15:39.197Z,62.11
2019-03-21T07:18:10.274Z,62.37
2019-03-21T07:20:41.002Z,62.47
2019-03-21T07:23:11.724Z,62.38
2019-03-21T07:25:42.478Z,62.15
2019-03-21T07:28:13.420Z,63.06
2019-03-21T07:30:44.182Z,62.45
2019-03-21T07:33:14.873Z,62.87
2019-03-21T07:35:45.603Z,62.33
2019-03-21T07:38:16.509Z,62.49
2019-03-21T07:40:47.311Z,62.00
2019-03-21T07:43:18.252Z,63.83
2019-03-21T07:45:49.276Z,67.01
2019-03-21T07:48:19.965Z,63.48
2019-03-21T07:50:50.671Z,65.61
2019-03-21T07:53:22.209Z,63.56
2019-03-21T07:55:53.319Z,63.35
2019-03-21T07:58:24.223Z,62.69
2019-03-21T08:00:54.942Z,64.76
2019-03-21T08:03:26.117Z,63.90
2019-03-21T08:05:56.846Z,62.49
2019-03-21T08:08:27.644Z,62.61
2019-03-21T08:10:58.320Z,63.31
2019-03-21T08:13:29.125Z,62.53
2019-03-21T08:16:00.306Z,63.53
2019-03-21T08:18:31.226Z,63.06
2019-03-21T08:21:02.591Z,62.52
2019-03-21T08:23:33.447Z,62.18
2019-03-21T08:26:04.157Z,63.40
2019-03-21T08:28:35.209Z,67.00
2019-03-21T08:31:20.182Z,63.64
2019-03-21T08:33:51.068Z,62.61
2019-03-21T08:36:21.902Z,62.76
2019-03-21T08:38:53.159Z,64.89
2019-03-21T08:41:25.593Z,63.39
2019-03-21T08:43:56.302Z,63.08
2019-03-21T08:46:27.265Z,62.64
2019-03-21T08:48:58.185Z,62.51
2019-03-21T08:51:28.981Z,62.75
2019-03-21T08:53:59.846Z,62.39
2019-03-21T08:56:30.676Z,62.83
2019-03-21T08:59:01.708Z,61.98
2019-03-21T09:01:32.563Z,62.16
2019-03-21T09:04:03.354Z,63.73
2019-03-21T09:06:34.182Z,62.05
2019-03-21T09:09:07.899Z,63.45
2019-03-21T09:11:40.592Z,62.36
2019-03-21T09:14:14.613Z,62.10
2019-03-21T09:16:45.375Z,61.57
2019-03-21T09:19:16.380Z,62.37
2019-03-21T09:21:47.625Z,62.61
2019-03-21T09:24:18.337Z,62.84
2019-03-21T09:26:49.289Z,61.63
2019-03-21T09:29:20.214Z,61.53
2019-03-21T09:31:51.025Z,61.24
2019-03-21T09:34:22.057Z,61.07
2019-03-21T09:36:52.948Z,61.34
2019-03-21T09:39:24.891Z,60.47
2019-03-21T09:41:55.763Z,61.38
2019-03-21T09:44:24.861Z,62.84
2019-03-21T09:46:56.217Z,61.07
2019-03-21T09:49:27.147Z,60.24
2019-03-21T09:51:57.923Z,60.41
2019-03-21T09:54:28.642Z,60.17
2019-03-21T09:56:59.446Z,62.07
2019-03-21T09:59:30.184Z,61.33
2019-03-21T10:02:01.130Z,60.95
2019-03-21T10:04:31.831Z,60.44
2019-03-21T10:07:02.639Z,61.25
2019-03-21T10:09:33.356Z,62.15
2019-03-21T10:12:05.882Z,60.92
2019-03-21T10:14:37.153Z,60.95
2019-03-21T10:17:08.251Z,60.12
2019-03-21T10:19:39.195Z,64.29
2019-03-21T10:22:10.266Z,60.72
2019-03-21T10:24:41.297Z,59.62
2019-03-21T10:27:12.530Z,59.70
2019-03-21T10:29:43.503Z,60.04
2019-03-21T10:32:14.870Z,59.36
2019-03-21T10:34:47.299Z,59.11
2019-03-21T10:37:18.386Z,58.31
2019-03-21T10:39:49.570Z,58.91
2019-03-21T10:42:20.660Z,59.82
2019-03-21T10:44:51.788Z,59.47
2019-03-21T10:47:23.375Z,61.11
2019-03-21T10:49:54.367Z,61.72
2019-03-21T10:52:25.538Z,59.34
2019-03-21T10:54:56.754Z,59.57
2019-03-21T10:57:28.467Z,59.21
2019-03-21T11:00:01.695Z,60.46
2019-03-21T11:02:32.026Z,58.87
2019-03-21T11:05:02.966Z,58.41
2019-03-21T11:07:33.738Z,58.99
2019-03-21T11:10:04.885Z,60.92
2019-03-21T11:12:35.798Z,59.16
2019-03-21T11:15:07.128Z,59.10
2019-03-21T11:17:37.908Z,60.84
2019-03-21T11:20:08.879Z,63.59
2019-03-21T11:22:39.584Z,61.35
2019-03-21T11:25:10.582Z,60.87
2019-03-21T11:27:41.633Z,62.81
2019-03-21T11:30:16.501Z,59.82
2019-03-21T11:32:47.174Z,62.12
2019-03-21T11:35:17.922Z,60.31
2019-03-21T11:37:48.657Z,59.34
2019-03-21T11:40:19.417Z,58.72
2019-03-21T11:42:50.158Z,58.70
2019-03-21T11:45:21.082Z,58.91
2019-03-21T11:47:53.385Z,59.05
2019-03-21T11:50:24.091Z,58.85
2019-03-21T11:52:54.816Z,58.05
2019-03-21T11:55:25.586Z,60.33
2019-03-21T11:57:56.338Z,58.58
2019-03-21T12:00:27.034Z,59.56
2019-03-21T12:02:58.227Z,58.34
2019-03-21T12:05:29.033Z,58.76
2019-03-21T12:07:59.783Z,59.17
2019-03-21T12:10:30.523Z,58.47
2019-03-21T12:13:01.288Z,59.05
2019-03-21T12:15:32.128Z,58.24
2019-03-21T12:18:02.914Z,58.17
2019-03-21T12:20:37.621Z,58.71
2019-03-21T12:23:08.574Z,58.46
2019-03-21T12:25:45.920Z,59.19
2019-03-21T12:28:16.927Z,59.81
2019-03-21T12:30:48.186Z,59.48
2019-03-21T12:33:18.934Z,60.45
2019-03-21T12:35:49.778Z,59.97
2019-03-21T12:38:20.783Z,59.47
2019-03-21T12:40:51.556Z,60.26
2019-03-21T12:43:22.790Z,62.29
2019-03-21T12:45:53.562Z,59.61
2019-03-21T12:48:24.410Z,60.99
2019-03-21T12:50:55.294Z,58.75
2019-03-21T12:53:26.038Z,58.98
2019-03-21T12:55:56.753Z,57.97
2019-03-21T12:58:27.485Z,58.36
2019-03-21T13:00:58.245Z,58.32
2019-03-21T13:03:29.075Z,60.39
2019-03-21T13:05:59.812Z,59.78
2019-03-21T13:08:34.026Z,58.33
2019-03-21T13:11:03.178Z,64.32
2019-03-21T13:13:33.908Z,59.38
2019-03-21T13:16:04.846Z,59.47
2019-03-21T13:18:35.591Z,61.15
2019-03-21T13:21:06.451Z,60.29
2019-03-21T13:23:37.214Z,60.69
2019-03-21T13:26:07.951Z,61.28
2019-03-21T13:28:38.676Z,59.27
2019-03-21T13:31:09.412Z,58.87
2019-03-21T13:33:40.176Z,58.40
2019-03-21T13:36:10.891Z,59.98
2019-03-21T13:38:41.631Z,59.33
2019-03-21T13:41:12.350Z,60.46
2019-03-21T13:43:43.315Z,60.85
2019-03-21T13:46:14.039Z,60.32
2019-03-21T13:48:44.769Z,59.61
2019-03-21T13:51:15.481Z,58.08
2019-03-21T13:53:46.670Z,59.28
2019-03-21T13:56:19.695Z,58.41
2019-03-21T13:58:50.897Z,57.78
2019-03-21T14:01:21.609Z,57.59
2019-03-21T14:03:52.394Z,58.08
2019-03-21T14:06:23.078Z,57.58
2019-03-21T14:08:53.813Z,57.05
2019-03-21T14:11:24.543Z,58.38
2019-03-21T14:13:55.534Z,57.81
2019-03-21T14:16:28.720Z,57.14
2019-03-21T14:18:59.423Z,57.77
2019-03-21T14:21:30.111Z,57.26
2019-03-21T14:24:00.929Z,57.58
2019-03-21T14:26:31.666Z,57.16
2019-03-21T14:29:12.175Z,56.73
2019-03-21T14:31:34.954Z,56.81
2019-03-21T14:34:05.677Z,59.49
2019-03-21T14:36:36.528Z,58.39
2019-03-21T14:39:08.643Z,58.54
2019-03-21T14:41:39.907Z,57.52
2019-03-21T14:44:10.653Z,57.00
2019-03-21T14:46:41.420Z,56.77
2019-03-21T14:49:12.278Z,56.59
2019-03-21T14:51:43.013Z,56.32
2019-03-21T14:54:13.760Z,57.65
2019-03-21T14:56:44.578Z,57.16
2019-03-21T14:59:15.554Z,56.47
2019-03-21T15:01:46.309Z,56.55
2019-03-21T15:04:17.241Z,57.52
2019-03-21T15:06:47.996Z,58.05
2019-03-21T15:09:18.733Z,57.13
2019-03-21T15:11:49.502Z,56.24
2019-03-21T15:14:20.359Z,55.79
2019-03-21T15:16:51.079Z,57.69
2019-03-21T15:19:21.908Z,59.32
2019-03-21T15:21:52.677Z,58.50
2019-03-21T15:24:23.646Z,57.64
2019-03-21T15:26:54.355Z,57.52
2019-03-21T15:29:25.230Z,57.46
2019-03-21T15:31:56.119Z,58.63
2019-03-21T15:34:27.622Z,59.06
2019-03-21T15:36:58.440Z,58.16
2019-03-21T15:39:29.209Z,57.62
2019-03-21T15:41:59.952Z,57.12
2019-03-21T15:44:30.939Z,56.95
2019-03-21T15:47:01.759Z,56.90
2019-03-21T15:49:32.868Z,56.98
2019-03-21T15:52:03.608Z,56.87
2019-03-21T15:54:34.580Z,56.73
2019-03-21T15:57:05.758Z,56.89
2019-03-21T15:59:36.523Z,57.30
2019-03-21T16:02:07.302Z,57.85
2019-03-21T16:04:38.038Z,58.13
2019-03-21T16:07:08.952Z,57.69
2019-03-21T16:09:39.724Z,60.35
2019-03-21T16:12:11.185Z,60.49
2019-03-21T16:14:42.240Z,58.42
2019-03-21T16:17:13.041Z,60.72
2019-03-21T16:19:43.758Z,58.77
2019-03-21T16:22:18.098Z,58.59
2019-03-21T16:24:51.957Z,60.08
2019-03-21T16:27:24.890Z,58.79
2019-03-21T16:29:55.616Z,61.55
2019-03-21T16:32:26.392Z,59.01
2019-03-21T16:34:57.152Z,59.59
2019-03-21T16:37:27.902Z,58.92
2019-03-21T16:39:58.640Z,59.52
2019-03-21T16:42:31.802Z,59.76
2019-03-21T16:45:02.523Z,59.37
2019-03-21T16:47:33.336Z,59.52
2019-03-21T16:50:04.596Z,60.11
2019-03-21T16:52:36.192Z,59.77
2019-03-21T16:55:08.812Z,60.17
2019-03-21T16:57:39.954Z,60.04
2019-03-21T17:00:11.260Z,59.73
2019-03-21T17:02:42.005Z,59.88
2019-03-21T17:05:12.917Z,60.12
2019-03-21T17:07:43.853Z,60.10
2019-03-21T17:10:16.523Z,60.32
2019-03-21T17:12:47.412Z,60.28
2019-03-21T17:15:18.291Z,60.82
2019-03-21T17:17:49.043Z,62.65
2019-03-21T17:20:20.311Z,61.27
2019-03-21T17:22:51.232Z,61.17
2019-03-21T17:25:21.943Z,61.04
2019-03-21T17:27:54.784Z,61.53
2019-03-21T17:30:25.508Z,61.41
2019-03-21T17:32:56.562Z,62.55
2019-03-21T17:35:27.695Z,61.71
2019-03-21T17:37:59.265Z,62.36
2019-03-21T17:40:32.263Z,61.84
2019-03-21T17:43:03.201Z,61.42
2019-03-21T17:45:33.963Z,61.37
2019-03-21T17:48:04.871Z,63.29
2019-03-21T17:50:35.627Z,62.93
2019-03-21T17:53:06.506Z,62.21
2019-03-21T17:55:37.255Z,61.53
2019-03-21T17:58:08.009Z,62.24
2019-03-21T18:00:39.070Z,62.17
2019-03-21T18:03:10.174Z,61.86
2019-03-21T18:05:40.956Z,62.05
2019-03-21T18:08:11.882Z,62.02
2019-03-21T18:10:42.704Z,61.95
2019-03-21T18:13:13.943Z,61.81
2019-03-21T18:15:45.237Z,62.08
2019-03-21T18:18:16.020Z,62.20
2019-03-21T18:20:46.998Z,62.58
2019-03-21T18:23:18.207Z,62.35
2019-03-21T18:25:48.941Z,62.34
2019-03-21T18:28:19.717Z,64.40
2019-03-21T18:30:50.750Z,63.38
2019-03-21T18:33:21.528Z,63.72
2019-03-21T18:35:52.374Z,62.99
2019-03-21T18:38:23.267Z,63.30
2019-03-21T18:40:54.142Z,63.46
2019-03-21T18:43:24.935Z,63.17
2019-03-21T18:45:55.689Z,63.05
2019-03-21T18:48:26.474Z,63.25
2019-03-21T18:50:57.274Z,63.99
2019-03-21T18:53:28.483Z,64.37
2019-03-21T18:55:59.216Z,63.88
2019-03-21T18:58:30.082Z,63.41
2019-03-21T19:01:00.905Z,64.14
2019-03-21T19:03:31.602Z,63.74
2019-03-21T19:06:02.767Z,63.78
2019-03-21T19:08:34.769Z,63.85
2019-03-21T19:11:05.864Z,63.84
2019-03-21T19:13:36.560Z,64.41
2019-03-21T19:16:07.470Z,64.56
2019-03-21T19:18:38.242Z,64.32
2019-03-21T19:21:08.976Z,64.45
2019-03-21T19:23:40.033Z,64.01
2019-03-21T19:26:10.782Z,64.40
2019-03-21T19:28:41.563Z,64.34
2019-03-21T19:31:12.314Z,64.45
2019-03-21T19:33:43.145Z,64.31
2019-03-21T19:36:13.926Z,64.61
2019-03-21T19:38:45.278Z,64.39
2019-03-21T19:41:16.067Z,64.22
2019-03-21T19:43:47.003Z,65.50
2019-03-21T19:46:17.754Z,65.57
2019-03-21T19:48:50.519Z,65.02
2019-03-21T19:51:21.183Z,65.89
2019-03-21T19:53:52.187Z,65.42
2019-03-21T19:56:23.075Z,65.53
2019-03-21T19:58:54.082Z,65.10
2019-03-21T20:01:25.100Z,65.62
2019-03-21T20:03:55.872Z,65.57
2019-03-21T20:06:29.265Z,65.49
2019-03-21T20:09:00.124Z,65.45
2019-03-21T20:11:31.074Z,65.00
2019-03-21T20:14:03.986Z,65.41
2019-03-21T20:16:34.537Z,65.05
2019-03-21T20:19:05.383Z,65.32
2019-03-21T20:21:47.298Z,65.57
2019-03-21T20:24:09.095Z,65.91
2019-03-21T20:26:40.086Z,65.44
2019-03-21T20:29:11.068Z,65.33
2019-03-21T20:31:41.820Z,67.37
2019-03-21T20:34:12.986Z,66.68
2019-03-21T20:36:46.626Z,66.17
2019-03-21T20:39:17.347Z,66.02
2019-03-21T20:41:48.431Z,66.60
2019-03-21T20:44:19.479Z,66.45
2019-03-21T20:46:50.312Z,66.42
2019-03-21T20:49:21.134Z,66.49
2019-03-21T20:51:51.965Z,66.90
2019-03-21T20:54:22.741Z,66.08
2019-03-21T20:56:53.619Z,66.18
2019-03-21T20:59:24.360Z,67.39
2019-03-21T21:02:02.757Z,66.71
2019-03-21T21:04:27.862Z,67.00
2019-03-21T21:06:58.833Z,66.58
2019-03-21T21:09:29.526Z,66.96
2019-03-21T21:12:00.689Z,66.75
2019-03-21T21:14:31.649Z,66.93
2019-03-21T21:17:02.505Z,67.48
2019-03-21T21:19:33.306Z,67.66
2019-03-21T21:22:04.198Z,67.86
2019-03-21T21:24:35.029Z,68.04
2019-03-21T21:27:05.915Z,67.67
2019-03-21T21:29:36.601Z,67.73
2019-03-21T21:32:07.584Z,67.70
2019-03-21T21:34:38.397Z,67.53
2019-03-21T21:37:09.132Z,67.51
2019-03-21T21:39:39.984Z,67.83
2019-03-21T21:42:10.786Z,67.58
2019-03-21T21:44:41.623Z,67.89
2019-03-21T21:47:12.469Z,68.39
2019-03-21T21:49:43.260Z,67.70
2019-03-21T21:52:13.988Z,68.33
2019-03-21T21:54:44.807Z,68.23
2019-03-21T21:57:15.671Z,69.21
2019-03-21T21:59:46.481Z,68.55
2019-03-21T22:02:17.328Z,68.49
2019-03-21T22:04:48.333Z,67.99
2019-03-21T22:07:19.518Z,68.89
2019-03-21T22:09:50.361Z,67.93
2019-03-21T22:12:21.246Z,68.71
2019-03-21T22:14:51.966Z,68.97
2019-03-21T22:17:22.823Z,68.81
2019-03-21T22:19:53.632Z,68.64
2019-03-21T22:22:24.426Z,69.38
2019-03-21T22:24:55.187Z,69.17
2019-03-21T22:27:25.917Z,69.11
2019-03-21T22:29:56.661Z,69.11
2019-03-21T22:32:27.392Z,69.87
2019-03-21T22:34:58.348Z,69.64
2019-03-21T22:37:29.117Z,69.32
2019-03-21T22:39:59.870Z,69.84
2019-03-21T22:42:31.310Z,69.76
2019-03-21T22:45:02.077Z,69.65
2019-03-21T22:47:32.856Z,69.32
2019-03-21T22:50:04.058Z,69.09
2019-03-21T22:52:35.072Z,68.76
2019-03-21T22:55:06.712Z,69.14
2019-03-21T22:57:38.118Z,68.99
2019-03-21T23:00:12.005Z,69.49
2019-03-21T23:02:42.868Z,69.10
2019-03-21T23:05:14.373Z,69.44
2019-03-21T23:07:45.684Z,70.17
2019-03-21T23:10:17.170Z,70.21
2019-03-21T23:12:48.419Z,70.37
2019-03-21T23:15:19.420Z,70.38
2019-03-21T23:17:50.463Z,70.90
2019-03-21T23:20:21.304Z,70.50
2019-03-21T23:22:52.516Z,70.56
2019-03-21T23:25:23.368Z,70.25
2019-03-21T23:27:54.275Z,70.36
2019-03-21T23:30:24.996Z,70.33
2019-03-21T23:32:55.831Z,70.78
2019-03-21T23:35:27.165Z,70.51
2019-03-21T23:37:58.059Z,70.13
2019-03-21T23:40:28.928Z,70.15
2019-03-21T23:42:59.683Z,72.68
2019-03-21T23:45:30.512Z,77.22
2019-03-21T23:48:02.826Z,79.97
2019-03-21T23:50:33.500Z,76.67
2019-03-21T23:53:05.217Z,72.83
2019-03-21T23:55:36.214Z,71.18
2019-03-21T23:58:08.214Z,70.71
